Igiugig, Alaska
Current Conditions -  °F | °C
As of 11:56 PM on Thursday 25 Dec 2014 (Local Time) from PAIG Reporting Station
Clear Clear  
Wind Chill: 28°   Ceiling: Unl
Heat Index: 28°   Visibility: 10mi
Dew Point: 25°   Wind: 0mph
Humidity: 89%   Direction: NA
Pressure: 29.82"   Gusts: NA
Location:  59.32°N, 155.89°W
Report Text: PAIG 260756Z AUTO 00000KT 10SM CLR M02/M04 A2982 RMK AO2 TSNO T10221038 SLP101 $
Loading
Personal Weather Stations






























Interactive Weather Map New forecast layout! Learn more

10-Day Weather Forecast

Advertisements
Track Severe Weather on mobile